Terminal Aerodrome Forecast
Issued by NWS

Current Version | Previous Version | Graphics & Text | Print | Product List | Glossary On
Versions: 1 2 3 4 5 6 7 8 9 10 11 12 13 14 15 16 17 18 19 20 21 22 23
000
FTUS41 KILN 240500
TAFLUK
TAF
KLUK 240539Z 2406/2506 30003KT P6SM SCT025 OVC120
      TEMPO 2411/2413 OVC025
     FM241300 25007KT P6SM SCT080
     FM241800 25010G18KT P6SM OVC035
     FM242200 26005KT P6SM OVC035=

USA.gov is the U.S. government's official web portal to all federal, state and local government web resources and services.